sensor_id;sensor_type;location;lat;lon;timestamp;P1;durP1;ratioP1;P2;durP2;ratioP2
66626;SDS011;53498;50.422;14.912;2024-02-15T00:00:40;23.33;;;13.80;;
66626;SDS011;53498;50.422;14.912;2024-02-15T00:03:28;19.73;;;11.85;;
66626;SDS011;53498;50.422;14.912;2024-02-15T00:05:54;21.73;;;12.38;;
66626;SDS011;53498;50.422;14.912;2024-02-15T00:08:19;17.45;;;11.40;;
66626;SDS011;53498;50.422;14.912;2024-02-15T00:10:46;16.40;;;12.30;;
66626;SDS011;53498;50.422;14.912;2024-02-15T00:13:12;16.48;;;11.77;;
66626;SDS011;53498;50.422;14.912;2024-02-15T00:15:38;20.00;;;12.38;;
66626;SDS011;53498;50.422;14.912;2024-02-15T00:18:04;22.48;;;12.10;;
66626;SDS011;53498;50.422;14.912;2024-02-15T00:20:30;22.52;;;12.20;;
66626;SDS011;53498;50.422;14.912;2024-02-15T00:22:58;18.55;;;12.00;;
66626;SDS011;53498;50.422;14.912;2024-02-15T00:25:24;19.10;;;10.77;;
66626;SDS011;53498;50.422;14.912;2024-02-15T00:27:51;15.80;;;11.68;;
66626;SDS011;53498;50.422;14.912;2024-02-15T00:30:17;15.15;;;10.57;;
66626;SDS011;53498;50.422;14.912;2024-02-15T00:32:42;19.65;;;11.70;;
66626;SDS011;53498;50.422;14.912;2024-02-15T00:35:09;14.65;;;8.85;;
66626;SDS011;53498;50.422;14.912;2024-02-15T00:37:35;15.82;;;10.15;;
66626;SDS011;53498;50.422;14.912;2024-02-15T00:40:01;14.60;;;9.13;;
66626;SDS011;53498;50.422;14.912;2024-02-15T00:42:29;18.15;;;10.35;;
66626;SDS011;53498;50.422;14.912;2024-02-15T00:44:57;15.65;;;9.75;;
66626;SDS011;53498;50.422;14.912;2024-02-15T00:47:23;19.60;;;10.90;;
66626;SDS011;53498;50.422;14.912;2024-02-15T00:49:49;19.80;;;11.80;;
66626;SDS011;53498;50.422;14.912;2024-02-15T00:52:15;17.92;;;10.85;;
66626;SDS011;53498;50.422;14.912;2024-02-15T00:54:44;19.38;;;12.90;;
66626;SDS011;53498;50.422;14.912;2024-02-15T00:57:10;21.17;;;11.75;;
66626;SDS011;53498;50.422;14.912;2024-02-15T00:59:35;18.08;;;12.18;;
66626;SDS011;53498;50.422;14.912;2024-02-15T01:02:01;20.52;;;12.35;;
66626;SDS011;53498;50.422;14.912;2024-02-15T01:04:28;17.08;;;11.98;;
66626;SDS011;53498;50.422;14.912;2024-02-15T01:06:54;18.17;;;12.32;;
66626;SDS011;53498;50.422;14.912;2024-02-15T01:09:21;17.50;;;11.18;;
66626;SDS011;53498;50.422;14.912;2024-02-15T01:11:47;22.83;;;11.98;;
66626;SDS011;53498;50.422;14.912;2024-02-15T01:14:13;17.30;;;11.32;;
66626;SDS011;53498;50.422;14.912;2024-02-15T01:16:38;14.18;;;9.75;;
66626;SDS011;53498;50.422;14.912;2024-02-15T01:19:04;16.75;;;10.57;;
66626;SDS011;53498;50.422;14.912;2024-02-15T01:21:30;13.27;;;8.90;;
66626;SDS011;53498;50.422;14.912;2024-02-15T01:23:58;12.77;;;8.77;;
66626;SDS011;53498;50.422;14.912;2024-02-15T01:26:26;14.20;;;9.27;;
66626;SDS011;53498;50.422;14.912;2024-02-15T01:28:52;18.73;;;10.80;;
66626;SDS011;53498;50.422;14.912;2024-02-15T01:31:18;16.80;;;10.57;;
66626;SDS011;53498;50.422;14.912;2024-02-15T01:33:44;10.80;;;7.75;;
66626;SDS011;53498;50.422;14.912;2024-02-15T01:36:14;16.08;;;9.35;;
66626;SDS011;53498;50.422;14.912;2024-02-15T01:38:41;15.18;;;9.43;;
66626;SDS011;53498;50.422;14.912;2024-02-15T01:41:08;13.07;;;8.73;;
66626;SDS011;53498;50.422;14.912;2024-02-15T01:43:33;13.82;;;8.77;;
66626;SDS011;53498;50.422;14.912;2024-02-15T01:46:00;11.65;;;8.80;;
66626;SDS011;53498;50.422;14.912;2024-02-15T01:48:32;14.30;;;8.57;;
66626;SDS011;53498;50.422;14.912;2024-02-15T01:50:58;14.30;;;9.25;;
66626;SDS011;53498;50.422;14.912;2024-02-15T01:53:24;12.77;;;8.65;;
66626;SDS011;53498;50.422;14.912;2024-02-15T01:55:52;13.57;;;9.00;;
66626;SDS011;53498;50.422;14.912;2024-02-15T01:58:19;13.60;;;9.70;;
66626;SDS011;53498;50.422;14.912;2024-02-15T02:00:45;15.73;;;10.07;;
66626;SDS011;53498;50.422;14.912;2024-02-15T02:03:12;13.88;;;9.10;;
66626;SDS011;53498;50.422;14.912;2024-02-15T02:05:40;15.90;;;9.02;;
66626;SDS011;53498;50.422;14.912;2024-02-15T02:08:06;11.77;;;8.88;;
66626;SDS011;53498;50.422;14.912;2024-02-15T02:10:38;13.85;;;8.95;;
66626;SDS011;53498;50.422;14.912;2024-02-15T02:13:04;17.23;;;9.38;;
66626;SDS011;53498;50.422;14.912;2024-02-15T02:15:31;12.63;;;8.90;;
66626;SDS011;53498;50.422;14.912;2024-02-15T02:17:57;15.82;;;9.45;;
66626;SDS011;53498;50.422;14.912;2024-02-15T02:20:26;17.00;;;9.85;;
66626;SDS011;53498;50.422;14.912;2024-02-15T02:22:53;13.00;;;9.73;;
66626;SDS011;53498;50.422;14.912;2024-02-15T02:25:22;14.10;;;8.82;;
66626;SDS011;53498;50.422;14.912;2024-02-15T02:27:52;13.50;;;9.60;;
66626;SDS011;53498;50.422;14.912;2024-02-15T02:30:18;14.38;;;9.27;;
66626;SDS011;53498;50.422;14.912;2024-02-15T02:32:47;11.85;;;9.55;;
66626;SDS011;53498;50.422;14.912;2024-02-15T02:35:13;14.88;;;8.60;;
66626;SDS011;53498;50.422;14.912;2024-02-15T02:37:41;14.63;;;9.70;;
66626;SDS011;53498;50.422;14.912;2024-02-15T02:40:08;11.68;;;8.00;;
66626;SDS011;53498;50.422;14.912;2024-02-15T02:42:35;11.18;;;8.43;;
66626;SDS011;53498;50.422;14.912;2024-02-15T02:45:03;16.25;;;9.35;;
66626;SDS011;53498;50.422;14.912;2024-02-15T02:47:30;16.23;;;9.40;;
66626;SDS011;53498;50.422;14.912;2024-02-15T02:49:56;14.18;;;9.30;;
66626;SDS011;53498;50.422;14.912;2024-02-15T02:52:21;14.88;;;10.63;;
66626;SDS011;53498;50.422;14.912;2024-02-15T02:54:47;14.02;;;10.40;;
66626;SDS011;53498;50.422;14.912;2024-02-15T02:57:12;15.05;;;9.63;;
66626;SDS011;53498;50.422;14.912;2024-02-15T02:59:38;16.95;;;9.68;;
66626;SDS011;53498;50.422;14.912;2024-02-15T03:02:05;13.95;;;9.68;;
66626;SDS011;53498;50.422;14.912;2024-02-15T03:04:32;14.40;;;9.27;;
66626;SDS011;53498;50.422;14.912;2024-02-15T03:06:58;16.50;;;9.38;;
66626;SDS011;53498;50.422;14.912;2024-02-15T03:09:23;16.30;;;8.90;;
66626;SDS011;53498;50.422;14.912;2024-02-15T03:11:51;19.40;;;10.68;;
66626;SDS011;53498;50.422;14.912;2024-02-15T03:14:16;13.85;;;9.15;;
66626;SDS011;53498;50.422;14.912;2024-02-15T03:16:42;13.60;;;10.10;;
66626;SDS011;53498;50.422;14.912;2024-02-15T03:19:07;16.33;;;10.10;;
66626;SDS011;53498;50.422;14.912;2024-02-15T03:21:36;15.23;;;9.70;;
66626;SDS011;53498;50.422;14.912;2024-02-15T03:24:01;16.63;;;9.55;;
66626;SDS011;53498;50.422;14.912;2024-02-15T03:26:31;14.07;;;10.05;;
66626;SDS011;53498;50.422;14.912;2024-02-15T03:29:04;16.88;;;10.02;;
66626;SDS011;53498;50.422;14.912;2024-02-15T03:31:29;13.88;;;10.50;;
66626;SDS011;53498;50.422;14.912;2024-02-15T03:33:58;16.52;;;9.95;;
66626;SDS011;53498;50.422;14.912;2024-02-15T03:36:24;15.38;;;11.13;;
66626;SDS011;53498;50.422;14.912;2024-02-15T03:38:50;15.45;;;11.25;;
66626;SDS011;53498;50.422;14.912;2024-02-15T03:41:19;17.75;;;10.50;;
66626;SDS011;53498;50.422;14.912;2024-02-15T03:43:45;21.20;;;11.93;;
66626;SDS011;53498;50.422;14.912;2024-02-15T03:46:11;32.63;;;15.95;;
66626;SDS011;53498;50.422;14.912;2024-02-15T03:48:38;27.38;;;14.95;;
66626;SDS011;53498;50.422;14.912;2024-02-15T03:51:04;24.95;;;12.45;;
66626;SDS011;53498;50.422;14.912;2024-02-15T03:53:31;18.92;;;10.88;;
66626;SDS011;53498;50.422;14.912;2024-02-15T03:55:58;13.70;;;9.63;;
66626;SDS011;53498;50.422;14.912;2024-02-15T03:58:26;18.35;;;9.48;;
66626;SDS011;53498;50.422;14.912;2024-02-15T04:00:54;14.80;;;11.40;;
66626;SDS011;53498;50.422;14.912;2024-02-15T04:03:29;14.90;;;9.25;;
66626;SDS011;53498;50.422;14.912;2024-02-15T04:05:54;14.40;;;9.55;;
66626;SDS011;53498;50.422;14.912;2024-02-15T04:08:20;14.65;;;9.00;;
66626;SDS011;53498;50.422;14.912;2024-02-15T04:10:46;14.15;;;10.18;;
66626;SDS011;53498;50.422;14.912;2024-02-15T04:13:11;18.23;;;10.27;;
66626;SDS011;53498;50.422;14.912;2024-02-15T04:15:37;18.02;;;11.25;;
66626;SDS011;53498;50.422;14.912;2024-02-15T04:18:03;14.30;;;9.18;;
66626;SDS011;53498;50.422;14.912;2024-02-15T04:20:29;16.73;;;9.90;;
66626;SDS011;53498;50.422;14.912;2024-02-15T04:22:55;16.50;;;10.68;;
66626;SDS011;53498;50.422;14.912;2024-02-15T04:25:21;15.40;;;10.35;;
66626;SDS011;53498;50.422;14.912;2024-02-15T04:27:53;16.25;;;9.27;;
66626;SDS011;53498;50.422;14.912;2024-02-15T04:30:18;15.70;;;8.95;;
66626;SDS011;53498;50.422;14.912;2024-02-15T04:32:45;17.35;;;11.13;;
66626;SDS011;53498;50.422;14.912;2024-02-15T04:35:12;19.92;;;12.35;;
66626;SDS011;53498;50.422;14.912;2024-02-15T04:37:38;21.20;;;13.25;;
66626;SDS011;53498;50.422;14.912;2024-02-15T04:40:04;21.98;;;13.93;;
66626;SDS011;53498;50.422;14.912;2024-02-15T04:42:36;19.20;;;12.80;;
66626;SDS011;53498;50.422;14.912;2024-02-15T04:45:05;19.25;;;13.52;;
66626;SDS011;53498;50.422;14.912;2024-02-15T04:47:36;15.43;;;12.70;;
66626;SDS011;53498;50.422;14.912;2024-02-15T04:50:02;19.08;;;13.15;;
66626;SDS011;53498;50.422;14.912;2024-02-15T04:52:28;20.10;;;11.68;;
66626;SDS011;53498;50.422;14.912;2024-02-15T04:54:55;18.95;;;12.85;;
66626;SDS011;53498;50.422;14.912;2024-02-15T04:57:23;17.33;;;11.07;;
66626;SDS011;53498;50.422;14.912;2024-02-15T04:59:49;18.90;;;12.45;;
66626;SDS011;53498;50.422;14.912;2024-02-15T05:02:15;17.17;;;11.70;;
66626;SDS011;53498;50.422;14.912;2024-02-15T05:04:41;19.48;;;13.07;;
66626;SDS011;53498;50.422;14.912;2024-02-15T05:07:08;19.85;;;10.70;;
66626;SDS011;53498;50.422;14.912;2024-02-15T05:09:34;11.93;;;8.65;;
66626;SDS011;53498;50.422;14.912;2024-02-15T05:12:02;15.45;;;8.50;;
66626;SDS011;53498;50.422;14.912;2024-02-15T05:14:29;12.70;;;9.15;;
66626;SDS011;53498;50.422;14.912;2024-02-15T05:16:54;15.18;;;9.98;;
66626;SDS011;53498;50.422;14.912;2024-02-15T05:19:20;11.35;;;9.55;;
66626;SDS011;53498;50.422;14.912;2024-02-15T05:21:46;17.75;;;10.43;;
66626;SDS011;53498;50.422;14.912;2024-02-15T05:24:13;13.65;;;9.80;;
66626;SDS011;53498;50.422;14.912;2024-02-15T05:26:39;14.13;;;9.57;;
66626;SDS011;53498;50.422;14.912;2024-02-15T05:29:08;11.90;;;8.43;;
66626;SDS011;53498;50.422;14.912;2024-02-15T05:31:35;16.17;;;10.32;;
66626;SDS011;53498;50.422;14.912;2024-02-15T05:34:05;13.48;;;9.80;;
66626;SDS011;53498;50.422;14.912;2024-02-15T05:36:33;17.75;;;10.10;;
66626;SDS011;53498;50.422;14.912;2024-02-15T05:39:00;15.57;;;9.27;;
66626;SDS011;53498;50.422;14.912;2024-02-15T05:41:25;15.18;;;9.38;;
66626;SDS011;53498;50.422;14.912;2024-02-15T05:43:51;13.18;;;8.88;;
66626;SDS011;53498;50.422;14.912;2024-02-15T05:46:19;17.17;;;9.35;;
66626;SDS011;53498;50.422;14.912;2024-02-15T05:48:48;13.73;;;10.07;;
66626;SDS011;53498;50.422;14.912;2024-02-15T05:51:14;19.25;;;9.48;;
66626;SDS011;53498;50.422;14.912;2024-02-15T05:53:41;13.45;;;8.93;;
66626;SDS011;53498;50.422;14.912;2024-02-15T05:56:07;14.40;;;8.68;;
66626;SDS011;53498;50.422;14.912;2024-02-15T05:58:34;15.45;;;9.18;;
66626;SDS011;53498;50.422;14.912;2024-02-15T06:01:01;15.35;;;8.90;;
66626;SDS011;53498;50.422;14.912;2024-02-15T06:03:28;17.13;;;9.23;;
66626;SDS011;53498;50.422;14.912;2024-02-15T06:05:53;14.43;;;8.57;;
66626;SDS011;53498;50.422;14.912;2024-02-15T06:08:26;10.80;;;7.57;;
66626;SDS011;53498;50.422;14.912;2024-02-15T06:10:52;12.68;;;9.48;;
66626;SDS011;53498;50.422;14.912;2024-02-15T06:13:19;12.98;;;8.10;;
66626;SDS011;53498;50.422;14.912;2024-02-15T06:15:45;12.93;;;8.73;;
66626;SDS011;53498;50.422;14.912;2024-02-15T06:18:15;15.07;;;8.70;;
66626;SDS011;53498;50.422;14.912;2024-02-15T06:20:41;18.25;;;10.35;;
66626;SDS011;53498;50.422;14.912;2024-02-15T06:23:08;12.25;;;8.75;;
66626;SDS011;53498;50.422;14.912;2024-02-15T06:25:37;16.95;;;9.85;;
66626;SDS011;53498;50.422;14.912;2024-02-15T06:28:02;14.57;;;8.88;;
66626;SDS011;53498;50.422;14.912;2024-02-15T06:30:39;32.80;;;16.80;;
66626;SDS011;53498;50.422;14.912;2024-02-15T06:33:23;24.35;;;13.32;;
66626;SDS011;53498;50.422;14.912;2024-02-15T06:36:07;23.93;;;11.77;;
66626;SDS011;53498;50.422;14.912;2024-02-15T06:38:52;27.08;;;13.68;;
66626;SDS011;53498;50.422;14.912;2024-02-15T06:41:36;22.90;;;13.10;;
66626;SDS011;53498;50.422;14.912;2024-02-15T06:44:02;16.77;;;10.80;;
66626;SDS011;53498;50.422;14.912;2024-02-15T06:46:28;22.63;;;14.18;;
66626;SDS011;53498;50.422;14.912;2024-02-15T06:48:54;24.42;;;15.55;;
66626;SDS011;53498;50.422;14.912;2024-02-15T06:51:19;20.13;;;13.52;;
66626;SDS011;53498;50.422;14.912;2024-02-15T06:53:45;18.17;;;11.77;;
66626;SDS011;53498;50.422;14.912;2024-02-15T06:56:11;15.35;;;11.18;;
66626;SDS011;53498;50.422;14.912;2024-02-15T06:58:39;16.60;;;11.20;;
66626;SDS011;53498;50.422;14.912;2024-02-15T07:01:08;17.98;;;11.30;;
66626;SDS011;53498;50.422;14.912;2024-02-15T07:03:34;18.75;;;10.35;;
66626;SDS011;53498;50.422;14.912;2024-02-15T07:05:59;16.30;;;9.32;;
66626;SDS011;53498;50.422;14.912;2024-02-15T07:08:25;14.25;;;9.32;;
66626;SDS011;53498;50.422;14.912;2024-02-15T07:10:51;14.05;;;10.13;;
66626;SDS011;53498;50.422;14.912;2024-02-15T07:13:19;13.38;;;8.88;;
66626;SDS011;53498;50.422;14.912;2024-02-15T07:15:45;14.82;;;9.02;;
66626;SDS011;53498;50.422;14.912;2024-02-15T07:18:12;16.25;;;10.75;;
66626;SDS011;53498;50.422;14.912;2024-02-15T07:20:37;17.88;;;10.02;;
66626;SDS011;53498;50.422;14.912;2024-02-15T07:23:05;13.38;;;9.32;;
66626;SDS011;53498;50.422;14.912;2024-02-15T07:25:31;14.82;;;8.77;;
66626;SDS011;53498;50.422;14.912;2024-02-15T07:27:56;13.98;;;9.40;;
66626;SDS011;53498;50.422;14.912;2024-02-15T07:30:22;17.42;;;9.77;;
66626;SDS011;53498;50.422;14.912;2024-02-15T07:32:48;16.83;;;11.45;;
66626;SDS011;53498;50.422;14.912;2024-02-15T07:35:14;17.92;;;8.95;;
66626;SDS011;53498;50.422;14.912;2024-02-15T07:37:52;15.00;;;9.65;;
66626;SDS011;53498;50.422;14.912;2024-02-15T07:40:20;15.25;;;8.93;;
66626;SDS011;53498;50.422;14.912;2024-02-15T07:42:54;14.35;;;10.60;;
66626;SDS011;53498;50.422;14.912;2024-02-15T07:45:21;16.67;;;10.35;;
66626;SDS011;53498;50.422;14.912;2024-02-15T07:47:47;12.15;;;8.88;;
66626;SDS011;53498;50.422;14.912;2024-02-15T07:50:17;14.60;;;8.90;;
66626;SDS011;53498;50.422;14.912;2024-02-15T07:52:48;16.67;;;10.75;;
66626;SDS011;53498;50.422;14.912;2024-02-15T07:55:14;16.35;;;8.75;;
66626;SDS011;53498;50.422;14.912;2024-02-15T07:57:40;17.10;;;9.73;;
66626;SDS011;53498;50.422;14.912;2024-02-15T08:00:06;14.05;;;8.60;;
66626;SDS011;53498;50.422;14.912;2024-02-15T08:02:37;17.25;;;9.38;;
66626;SDS011;53498;50.422;14.912;2024-02-15T08:05:06;15.25;;;9.38;;
66626;SDS011;53498;50.422;14.912;2024-02-15T08:07:44;13.43;;;8.70;;
66626;SDS011;53498;50.422;14.912;2024-02-15T08:10:10;13.63;;;9.30;;
66626;SDS011;53498;50.422;14.912;2024-02-15T08:12:43;13.95;;;8.82;;
66626;SDS011;53498;50.422;14.912;2024-02-15T08:15:10;13.55;;;9.02;;
66626;SDS011;53498;50.422;14.912;2024-02-15T08:17:39;14.15;;;8.35;;
66626;SDS011;53498;50.422;14.912;2024-02-15T08:20:11;13.95;;;8.57;;
66626;SDS011;53498;50.422;14.912;2024-02-15T08:22:38;11.40;;;8.43;;
66626;SDS011;53498;50.422;14.912;2024-02-15T08:25:07;12.55;;;7.82;;
66626;SDS011;53498;50.422;14.912;2024-02-15T08:27:39;12.57;;;9.25;;
66626;SDS011;53498;50.422;14.912;2024-02-15T08:30:12;12.85;;;8.70;;
66626;SDS011;53498;50.422;14.912;2024-02-15T08:32:39;16.17;;;9.40;;
66626;SDS011;53498;50.422;14.912;2024-02-15T08:37:34;15.15;;;8.55;;
66626;SDS011;53498;50.422;14.912;2024-02-15T08:40:01;13.95;;;8.10;;
66626;SDS011;53498;50.422;14.912;2024-02-15T08:42:29;14.38;;;8.13;;
66626;SDS011;53498;50.422;14.912;2024-02-15T08:44:54;12.30;;;8.70;;
66626;SDS011;53498;50.422;14.912;2024-02-15T08:47:20;15.25;;;9.27;;
66626;SDS011;53498;50.422;14.912;2024-02-15T08:49:46;18.52;;;10.15;;
66626;SDS011;53498;50.422;14.912;2024-02-15T08:52:12;21.48;;;11.23;;
66626;SDS011;53498;50.422;14.912;2024-02-15T08:54:37;18.75;;;10.55;;
66626;SDS011;53498;50.422;14.912;2024-02-15T08:57:06;14.07;;;9.65;;
66626;SDS011;53498;50.422;14.912;2024-02-15T08:59:32;14.15;;;10.25;;
66626;SDS011;53498;50.422;14.912;2024-02-15T09:01:58;15.45;;;9.13;;
66626;SDS011;53498;50.422;14.912;2024-02-15T09:04:25;12.82;;;9.43;;
66626;SDS011;53498;50.422;14.912;2024-02-15T09:06:51;14.57;;;9.52;;
66626;SDS011;53498;50.422;14.912;2024-02-15T09:09:17;12.25;;;8.10;;
66626;SDS011;53498;50.422;14.912;2024-02-15T09:11:43;12.55;;;8.40;;
66626;SDS011;53498;50.422;14.912;2024-02-15T09:14:08;16.00;;;8.82;;
66626;SDS011;53498;50.422;14.912;2024-02-15T09:16:35;16.60;;;9.57;;
66626;SDS011;53498;50.422;14.912;2024-02-15T09:19:01;16.33;;;8.40;;
66626;SDS011;53498;50.422;14.912;2024-02-15T09:21:27;14.95;;;8.75;;
66626;SDS011;53498;50.422;14.912;2024-02-15T09:23:55;15.05;;;8.00;;
66626;SDS011;53498;50.422;14.912;2024-02-15T09:26:21;14.15;;;9.10;;
66626;SDS011;53498;50.422;14.912;2024-02-15T09:28:47;13.57;;;8.00;;
66626;SDS011;53498;50.422;14.912;2024-02-15T09:31:13;13.27;;;8.15;;
66626;SDS011;53498;50.422;14.912;2024-02-15T09:33:39;15.32;;;8.60;;
66626;SDS011;53498;50.422;14.912;2024-02-15T09:36:05;13.13;;;8.82;;
66626;SDS011;53498;50.422;14.912;2024-02-15T09:38:31;13.23;;;8.63;;
66626;SDS011;53498;50.422;14.912;2024-02-15T09:40:57;11.32;;;8.10;;
66626;SDS011;53498;50.422;14.912;2024-02-15T09:43:22;13.00;;;8.80;;
66626;SDS011;53498;50.422;14.912;2024-02-15T09:45:54;11.85;;;8.15;;
66626;SDS011;53498;50.422;14.912;2024-02-15T09:48:20;9.95;;;7.32;;
66626;SDS011;53498;50.422;14.912;2024-02-15T09:50:51;15.27;;;9.23;;
66626;SDS011;53498;50.422;14.912;2024-02-15T09:53:21;11.13;;;8.82;;
66626;SDS011;53498;50.422;14.912;2024-02-15T09:55:48;13.55;;;8.82;;
66626;SDS011;53498;50.422;14.912;2024-02-15T09:58:14;13.38;;;8.40;;
66626;SDS011;53498;50.422;14.912;2024-02-15T10:00:40;12.93;;;8.27;;
66626;SDS011;53498;50.422;14.912;2024-02-15T10:03:06;11.73;;;8.20;;
66626;SDS011;53498;50.422;14.912;2024-02-15T10:05:34;12.98;;;7.55;;
66626;SDS011;53498;50.422;14.912;2024-02-15T10:08:00;12.88;;;7.85;;
66626;SDS011;53498;50.422;14.912;2024-02-15T10:10:28;13.70;;;8.48;;
66626;SDS011;53498;50.422;14.912;2024-02-15T10:12:54;15.27;;;9.40;;
66626;SDS011;53498;50.422;14.912;2024-02-15T10:15:33;12.43;;;8.25;;
66626;SDS011;53498;50.422;14.912;2024-02-15T10:18:03;14.95;;;8.63;;
66626;SDS011;53498;50.422;14.912;2024-02-15T10:20:29;15.95;;;9.27;;
66626;SDS011;53498;50.422;14.912;2024-02-15T10:25:34;12.10;;;7.25;;
66626;SDS011;53498;50.422;14.912;2024-02-15T10:28:04;15.63;;;8.45;;
66626;SDS011;53498;50.422;14.912;2024-02-15T10:30:42;11.73;;;8.63;;
66626;SDS011;53498;50.422;14.912;2024-02-15T10:33:09;13.23;;;9.38;;
66626;SDS011;53498;50.422;14.912;2024-02-15T10:35:35;16.23;;;9.88;;
66626;SDS011;53498;50.422;14.912;2024-02-15T10:38:10;13.07;;;8.40;;
66626;SDS011;53498;50.422;14.912;2024-02-15T10:40:38;10.80;;;8.68;;
66626;SDS011;53498;50.422;14.912;2024-02-15T10:43:07;13.52;;;8.20;;
66626;SDS011;53498;50.422;14.912;2024-02-15T10:45:38;14.73;;;8.90;;
66626;SDS011;53498;50.422;14.912;2024-02-15T10:48:06;13.02;;;8.23;;
66626;SDS011;53498;50.422;14.912;2024-02-15T10:50:35;11.60;;;8.85;;
66626;SDS011;53498;50.422;14.912;2024-02-15T10:53:03;14.27;;;7.55;;
66626;SDS011;53498;50.422;14.912;2024-02-15T10:58:16;14.15;;;8.82;;
66626;SDS011;53498;50.422;14.912;2024-02-15T11:00:45;13.32;;;9.13;;
66626;SDS011;53498;50.422;14.912;2024-02-15T11:03:14;14.98;;;9.52;;
66626;SDS011;53498;50.422;14.912;2024-02-15T11:05:50;12.45;;;8.55;;
66626;SDS011;53498;50.422;14.912;2024-02-15T11:08:17;13.65;;;9.05;;
66626;SDS011;53498;50.422;14.912;2024-02-15T11:10:43;14.13;;;10.35;;
66626;SDS011;53498;50.422;14.912;2024-02-15T11:13:10;15.40;;;9.10;;
66626;SDS011;53498;50.422;14.912;2024-02-15T11:15:46;14.63;;;9.98;;
66626;SDS011;53498;50.422;14.912;2024-02-15T11:18:41;14.65;;;9.10;;
66626;SDS011;53498;50.422;14.912;2024-02-15T11:24:28;14.38;;;9.55;;
66626;SDS011;53498;50.422;14.912;2024-02-15T11:27:00;11.85;;;9.40;;
66626;SDS011;53498;50.422;14.912;2024-02-15T11:35:18;13.10;;;9.10;;
66626;SDS011;53498;50.422;14.912;2024-02-15T11:37:52;15.38;;;9.55;;
66626;SDS011;53498;50.422;14.912;2024-02-15T11:42:53;13.77;;;9.48;;
66626;SDS011;53498;50.422;14.912;2024-02-15T11:45:24;13.98;;;9.07;;
66626;SDS011;53498;50.422;14.912;2024-02-15T11:47:52;14.60;;;9.75;;
66626;SDS011;53498;50.422;14.912;2024-02-15T11:50:20;14.32;;;9.68;;
66626;SDS011;53498;50.422;14.912;2024-02-15T11:52:47;16.77;;;10.52;;
66626;SDS011;53498;50.422;14.912;2024-02-15T11:55:14;15.05;;;9.68;;
66626;SDS011;53498;50.422;14.912;2024-02-15T11:58:01;13.68;;;9.45;;
66626;SDS011;53498;50.422;14.912;2024-02-15T12:00:42;14.93;;;10.23;;
66626;SDS011;53498;50.422;14.912;2024-02-15T12:03:27;13.88;;;8.77;;
66626;SDS011;53498;50.422;14.912;2024-02-15T12:06:11;15.50;;;10.18;;
66626;SDS011;53498;50.422;14.912;2024-02-15T12:08:55;12.65;;;9.18;;
66626;SDS011;53498;50.422;14.912;2024-02-15T12:11:39;12.93;;;9.45;;
66626;SDS011;53498;50.422;14.912;2024-02-15T12:14:24;13.75;;;9.43;;
66626;SDS011;53498;50.422;14.912;2024-02-15T12:17:09;13.93;;;9.68;;
66626;SDS011;53498;50.422;14.912;2024-02-15T12:19:55;14.13;;;9.82;;
66626;SDS011;53498;50.422;14.912;2024-02-15T12:22:24;13.43;;;8.95;;
66626;SDS011;53498;50.422;14.912;2024-02-15T12:24:55;14.00;;;9.85;;
66626;SDS011;53498;50.422;14.912;2024-02-15T12:27:22;14.38;;;9.23;;
66626;SDS011;53498;50.422;14.912;2024-02-15T12:29:52;16.48;;;9.65;;
66626;SDS011;53498;50.422;14.912;2024-02-15T12:32:21;17.17;;;10.32;;
66626;SDS011;53498;50.422;14.912;2024-02-15T12:34:48;14.40;;;10.10;;
66626;SDS011;53498;50.422;14.912;2024-02-15T12:37:13;19.90;;;10.77;;
66626;SDS011;53498;50.422;14.912;2024-02-15T12:39:39;13.73;;;8.98;;
66626;SDS011;53498;50.422;14.912;2024-02-15T12:42:06;12.98;;;8.70;;
66626;SDS011;53498;50.422;14.912;2024-02-15T12:44:32;14.00;;;9.23;;
66626;SDS011;53498;50.422;14.912;2024-02-15T12:47:00;14.80;;;10.27;;
66626;SDS011;53498;50.422;14.912;2024-02-15T12:51:51;17.27;;;10.35;;
66626;SDS011;53498;50.422;14.912;2024-02-15T12:54:21;16.30;;;10.43;;
66626;SDS011;53498;50.422;14.912;2024-02-15T12:56:47;18.13;;;11.38;;
66626;SDS011;53498;50.422;14.912;2024-02-15T12:59:19;19.17;;;10.93;;
66626;SDS011;53498;50.422;14.912;2024-02-15T13:01:45;19.08;;;11.60;;
66626;SDS011;53498;50.422;14.912;2024-02-15T13:04:23;17.88;;;10.57;;
66626;SDS011;53498;50.422;14.912;2024-02-15T13:06:52;17.77;;;11.55;;
66626;SDS011;53498;50.422;14.912;2024-02-15T13:09:18;16.15;;;10.55;;
66626;SDS011;53498;50.422;14.912;2024-02-15T13:11:44;19.83;;;9.98;;
66626;SDS011;53498;50.422;14.912;2024-02-15T13:14:11;16.00;;;10.30;;
66626;SDS011;53498;50.422;14.912;2024-02-15T13:16:36;19.77;;;11.85;;
66626;SDS011;53498;50.422;14.912;2024-02-15T13:19:02;18.00;;;11.40;;
66626;SDS011;53498;50.422;14.912;2024-02-15T13:21:28;18.08;;;11.60;;
66626;SDS011;53498;50.422;14.912;2024-02-15T13:23:56;18.42;;;10.98;;
66626;SDS011;53498;50.422;14.912;2024-02-15T13:26:21;17.38;;;10.85;;
66626;SDS011;53498;50.422;14.912;2024-02-15T13:28:51;16.70;;;11.02;;
66626;SDS011;53498;50.422;14.912;2024-02-15T13:31:17;22.88;;;11.45;;
66626;SDS011;53498;50.422;14.912;2024-02-15T13:33:43;16.90;;;10.85;;
66626;SDS011;53498;50.422;14.912;2024-02-15T13:36:08;17.77;;;10.82;;
66626;SDS011;53498;50.422;14.912;2024-02-15T13:38:36;18.85;;;12.43;;
66626;SDS011;53498;50.422;14.912;2024-02-15T13:41:02;22.63;;;11.85;;
66626;SDS011;53498;50.422;14.912;2024-02-15T13:43:29;17.98;;;12.02;;
66626;SDS011;53498;50.422;14.912;2024-02-15T13:45:56;19.95;;;11.60;;
66626;SDS011;53498;50.422;14.912;2024-02-15T13:48:22;19.63;;;11.95;;
66626;SDS011;53498;50.422;14.912;2024-02-15T13:50:51;17.33;;;11.82;;
66626;SDS011;53498;50.422;14.912;2024-02-15T13:53:18;17.80;;;11.07;;
66626;SDS011;53498;50.422;14.912;2024-02-15T13:55:44;18.90;;;11.55;;
66626;SDS011;53498;50.422;14.912;2024-02-15T13:58:10;19.65;;;12.57;;
66626;SDS011;53498;50.422;14.912;2024-02-15T14:00:37;17.10;;;10.98;;
66626;SDS011;53498;50.422;14.912;2024-02-15T14:03:05;19.55;;;10.75;;
66626;SDS011;53498;50.422;14.912;2024-02-15T14:05:31;19.10;;;12.38;;
66626;SDS011;53498;50.422;14.912;2024-02-15T14:07:59;22.92;;;14.15;;
66626;SDS011;53498;50.422;14.912;2024-02-15T14:10:27;19.02;;;12.88;;
66626;SDS011;53498;50.422;14.912;2024-02-15T14:12:58;23.63;;;13.25;;
66626;SDS011;53498;50.422;14.912;2024-02-15T14:15:25;21.85;;;13.93;;
66626;SDS011;53498;50.422;14.912;2024-02-15T14:17:51;18.95;;;12.20;;
66626;SDS011;53498;50.422;14.912;2024-02-15T14:20:17;21.42;;;12.85;;
66626;SDS011;53498;50.422;14.912;2024-02-15T14:22:45;21.95;;;13.88;;
66626;SDS011;53498;50.422;14.912;2024-02-15T14:25:18;24.02;;;13.13;;
66626;SDS011;53498;50.422;14.912;2024-02-15T14:27:44;23.58;;;13.50;;
66626;SDS011;53498;50.422;14.912;2024-02-15T14:30:13;26.00;;;15.05;;
66626;SDS011;53498;50.422;14.912;2024-02-15T14:32:58;20.92;;;12.13;;
66626;SDS011;53498;50.422;14.912;2024-02-15T14:35:26;24.05;;;12.63;;
66626;SDS011;53498;50.422;14.912;2024-02-15T14:37:55;19.83;;;12.40;;
66626;SDS011;53498;50.422;14.912;2024-02-15T14:40:23;20.45;;;12.30;;
66626;SDS011;53498;50.422;14.912;2024-02-15T14:42:49;21.92;;;12.70;;